createdAt,value
2019-04-27T00:02:26.463Z,50.43
2019-04-27T00:05:03.132Z,50.95
2019-04-27T00:07:51.419Z,51.16
2019-04-27T00:10:50.393Z,50.23
2019-04-27T00:13:20.459Z,50.25
2019-04-27T00:16:19.338Z,50.62
2019-04-27T00:19:17.535Z,50.43
2019-04-27T00:22:03.102Z,50.79
2019-04-27T00:24:33.547Z,50.97
2019-04-27T00:27:06.748Z,50.87
2019-04-27T00:29:36.893Z,50.55
2019-04-27T00:32:07.163Z,50.20
2019-04-27T00:34:37.421Z,50.76
2019-04-27T00:37:20.159Z,50.54
2019-04-27T00:39:58.759Z,50.67
2019-04-27T00:42:28.838Z,50.61
2019-04-27T00:44:59.849Z,50.16
2019-04-27T00:47:30.001Z,50.05
2019-04-27T00:50:00.050Z,50.43
2019-04-27T00:52:30.174Z,50.32
2019-04-27T00:55:00.283Z,50.21
2019-04-27T00:57:47.721Z,50.35
2019-04-27T01:00:44.011Z,50.69
2019-04-27T01:03:23.164Z,51.12
2019-04-27T01:05:53.219Z,51.81
2019-04-27T01:08:23.266Z,50.73
2019-04-27T01:10:53.783Z,50.12
2019-04-27T01:13:24.843Z,50.56
2019-04-27T01:15:55.697Z,51.08
2019-04-27T01:18:25.752Z,51.21
2019-04-27T01:20:55.913Z,51.00
2019-04-27T01:23:25.971Z,50.88
2019-04-27T01:26:10.697Z,51.07
2019-04-27T01:28:45.917Z,51.25
2019-04-27T01:31:15.976Z,51.10
2019-04-27T01:33:46.062Z,51.33
2019-04-27T01:36:16.144Z,51.68
2019-04-27T01:38:46.188Z,51.77
2019-04-27T01:41:16.255Z,52.17
2019-04-27T01:43:46.312Z,52.14
2019-04-27T01:46:16.338Z,52.09
2019-04-27T01:48:46.394Z,53.92
2019-04-27T01:51:16.474Z,54.41
2019-04-27T01:53:46.551Z,55.54
2019-04-27T01:56:16.566Z,56.09
2019-04-27T01:58:46.610Z,57.09
2019-04-27T02:01:48.949Z,55.99
2019-04-27T02:04:47.046Z,56.05
2019-04-27T02:07:19.082Z,56.51
2019-04-27T02:09:48.946Z,56.24
2019-04-27T02:12:19.315Z,56.20
2019-04-27T02:14:49.361Z,56.45
2019-04-27T02:17:19.447Z,56.00
2019-04-27T02:19:49.538Z,56.15
2019-04-27T02:22:19.637Z,55.44
2019-04-27T02:24:50.025Z,54.76
2019-04-27T02:27:21.733Z,54.47
2019-04-27T02:30:11.780Z,54.53
2019-04-27T02:33:06.725Z,53.80
2019-04-27T02:35:39.107Z,53.44
2019-04-27T02:38:10.071Z,54.00
2019-04-27T02:40:55.822Z,53.38
2019-04-27T02:43:44.812Z,51.88
2019-04-27T02:46:14.844Z,51.13
2019-04-27T02:48:55.972Z,51.39
2019-04-27T02:51:22.419Z,50.10
2019-04-27T02:54:00.175Z,49.88
2019-04-27T02:56:30.861Z,49.34
2019-04-27T02:59:00.951Z,49.47
2019-04-27T03:01:34.883Z,49.47
2019-04-27T03:04:04.977Z,50.20
2019-04-27T03:06:35.038Z,49.90
2019-04-27T03:09:10.213Z,50.03
2019-04-27T03:11:39.713Z,50.12
2019-04-27T03:14:35.844Z,49.55
2019-04-27T03:17:22.399Z,49.74
2019-04-27T03:19:56.686Z,49.56
2019-04-27T03:22:45.773Z,49.73
2019-04-27T03:25:35.623Z,48.94
2019-04-27T03:28:10.969Z,48.54
2019-04-27T03:30:42.867Z,48.46
2019-04-27T03:33:13.473Z,48.98
2019-04-27T03:35:44.203Z,48.88
2019-04-27T03:38:14.414Z,48.74
2019-04-27T03:40:44.487Z,48.72
2019-04-27T03:43:21.218Z,48.87
2019-04-27T03:45:52.493Z,48.89
2019-04-27T03:48:22.753Z,48.84
2019-04-27T03:51:09.988Z,48.95
2019-04-27T03:53:49.732Z,48.93
2019-04-27T03:56:39.548Z,48.69
2019-04-27T03:59:29.511Z,48.72
2019-04-27T04:02:02.405Z,48.84
2019-04-27T04:04:32.914Z,48.49
2019-04-27T04:07:13.575Z,48.50
2019-04-27T04:09:43.628Z,48.58
2019-04-27T04:12:31.294Z,48.04
2019-04-27T04:15:01.365Z,47.73
2019-04-27T04:17:31.410Z,48.45
2019-04-27T04:20:02.386Z,47.88
2019-04-27T04:22:33.479Z,48.30
2019-04-27T04:25:03.650Z,48.19
2019-04-27T04:27:33.752Z,48.60
2019-04-27T04:30:04.107Z,47.81
2019-04-27T04:32:34.208Z,48.20
2019-04-27T04:35:21.125Z,47.66
2019-04-27T04:37:52.694Z,46.50
2019-04-27T04:40:30.656Z,47.08
2019-04-27T04:43:06.981Z,46.28
2019-04-27T04:45:59.632Z,45.86
2019-04-27T04:48:30.336Z,46.03
2019-04-27T04:51:00.376Z,45.92
2019-04-27T04:53:30.405Z,46.24
2019-04-27T04:56:00.537Z,46.92
2019-04-27T04:58:31.319Z,46.90
2019-04-27T05:01:02.023Z,46.52
2019-04-27T05:03:32.278Z,46.30
2019-04-27T05:06:02.361Z,46.41
2019-04-27T05:08:32.444Z,47.10
2019-04-27T05:11:02.609Z,47.15
2019-04-27T05:13:32.653Z,46.82
2019-04-27T05:16:02.709Z,46.53
2019-04-27T05:18:32.750Z,46.81
2019-04-27T05:21:11.885Z,46.78
2019-04-27T05:23:41.929Z,46.48
2019-04-27T05:26:11.982Z,46.45
2019-04-27T05:28:42.050Z,46.46
2019-04-27T05:31:12.059Z,46.96
2019-04-27T05:33:42.096Z,46.76
2019-04-27T05:36:12.162Z,47.25
2019-04-27T05:38:45.920Z,47.29
2019-04-27T05:41:14.692Z,46.91
2019-04-27T05:44:07.568Z,46.99
2019-04-27T05:47:01.262Z,46.89
2019-04-27T05:49:40.439Z,46.87
2019-04-27T05:52:29.065Z,46.90
2019-04-27T05:54:59.302Z,46.63
2019-04-27T05:57:31.293Z,46.40
2019-04-27T06:00:02.307Z,46.69
2019-04-27T06:02:33.159Z,47.02
2019-04-27T06:05:04.513Z,47.23
2019-04-27T06:07:34.674Z,47.49
2019-04-27T06:10:04.990Z,47.30
2019-04-27T06:12:35.065Z,47.23
2019-04-27T06:15:05.885Z,47.39
2019-04-27T06:17:35.930Z,47.61
2019-04-27T06:20:06.634Z,46.43
2019-04-27T06:22:36.681Z,46.60
2019-04-27T06:25:06.967Z,46.69
2019-04-27T06:27:37.046Z,46.63
2019-04-27T06:30:09.214Z,46.73
2019-04-27T06:32:39.645Z,46.87
2019-04-27T06:35:12.299Z,47.00
2019-04-27T06:37:41.646Z,46.98
2019-04-27T06:40:11.761Z,46.77
2019-04-27T06:42:41.822Z,46.50
2019-04-27T06:45:11.889Z,46.54
2019-04-27T06:47:41.919Z,46.10
2019-04-27T06:50:12.044Z,46.02
2019-04-27T06:52:43.161Z,45.57
2019-04-27T06:55:13.278Z,45.19
2019-04-27T06:57:43.304Z,45.63
2019-04-27T07:00:13.378Z,45.66
2019-04-27T07:02:43.402Z,45.26
2019-04-27T07:05:13.474Z,45.57
2019-04-27T07:07:43.497Z,45.20
2019-04-27T07:10:13.529Z,44.94
2019-04-27T07:12:43.554Z,44.35
2019-04-27T07:15:15.504Z,44.29
2019-04-27T07:17:45.385Z,43.97
2019-04-27T07:20:15.454Z,44.18
2019-04-27T07:22:45.522Z,44.60
2019-04-27T07:25:15.581Z,44.51
2019-04-27T07:27:45.803Z,43.81
2019-04-27T07:30:15.886Z,43.56
2019-04-27T07:32:45.930Z,43.39
2019-04-27T07:35:15.988Z,43.87
2019-04-27T07:37:46.051Z,43.87
2019-04-27T07:40:16.112Z,44.23
2019-04-27T07:42:49.641Z,44.49
2019-04-27T07:45:25.598Z,44.50
2019-04-27T07:47:55.738Z,44.26
2019-04-27T07:50:25.786Z,44.71
2019-04-27T07:52:55.821Z,44.73
2019-04-27T07:55:25.887Z,44.12
2019-04-27T07:57:55.905Z,43.84
2019-04-27T08:00:25.922Z,43.94
2019-04-27T08:02:55.944Z,43.65
2019-04-27T08:05:25.957Z,42.91
2019-04-27T08:07:56.975Z,42.82
2019-04-27T08:10:27.021Z,42.93
2019-04-27T08:12:57.063Z,43.03
2019-04-27T08:15:28.999Z,42.93
2019-04-27T08:17:59.284Z,42.78
2019-04-27T08:20:29.515Z,42.79
2019-04-27T08:23:01.325Z,42.53
2019-04-27T08:25:31.539Z,42.58
2019-04-27T08:28:11.630Z,43.14
2019-04-27T08:30:56.504Z,43.24
2019-04-27T08:33:26.566Z,43.88
2019-04-27T08:35:59.135Z,44.27
2019-04-27T08:38:29.625Z,44.03
2019-04-27T08:40:59.702Z,44.18
2019-04-27T08:43:29.762Z,44.32
2019-04-27T08:46:00.346Z,44.39
2019-04-27T08:48:34.702Z,44.64
2019-04-27T08:51:03.006Z,44.53
2019-04-27T08:53:33.094Z,43.99
2019-04-27T08:56:03.166Z,43.62
2019-04-27T08:58:33.218Z,43.21
2019-04-27T09:01:03.420Z,43.17
2019-04-27T09:03:33.572Z,43.30
2019-04-27T09:06:07.064Z,43.62
2019-04-27T09:08:56.780Z,42.73
2019-04-27T09:11:39.938Z,42.14
2019-04-27T09:14:34.744Z,42.10
2019-04-27T09:17:13.781Z,42.20
2019-04-27T09:20:09.532Z,42.65
2019-04-27T09:22:39.733Z,42.22
2019-04-27T09:25:10.774Z,41.89
2019-04-27T09:27:41.224Z,41.90
2019-04-27T09:30:11.274Z,42.15
2019-04-27T09:32:41.397Z,42.11
2019-04-27T09:35:11.442Z,41.55
2019-04-27T09:37:41.507Z,41.55
2019-04-27T09:40:13.901Z,41.98
2019-04-27T09:42:43.941Z,41.82
2019-04-27T09:45:15.864Z,42.04
2019-04-27T09:47:46.815Z,41.77
2019-04-27T09:50:17.258Z,41.25
2019-04-27T09:52:47.298Z,41.41
2019-04-27T09:55:17.409Z,40.98
2019-04-27T09:57:47.433Z,40.97
2019-04-27T10:00:17.526Z,40.97
2019-04-27T10:02:47.570Z,41.19
2019-04-27T10:05:18.754Z,41.28
2019-04-27T10:07:48.791Z,41.28
2019-04-27T10:10:18.893Z,41.43
2019-04-27T10:12:48.941Z,41.93
2019-04-27T10:15:19.058Z,42.09
2019-04-27T10:17:49.157Z,42.62
2019-04-27T10:20:20.012Z,41.26
2019-04-27T10:22:50.145Z,41.26
2019-04-27T10:25:27.710Z,41.13
2019-04-27T10:28:00.778Z,40.46
2019-04-27T10:30:31.575Z,39.87
2019-04-27T10:33:01.596Z,40.53
2019-04-27T10:35:31.634Z,41.10
2019-04-27T10:38:01.753Z,39.49
2019-04-27T10:40:31.787Z,39.08
2019-04-27T10:43:01.853Z,39.22
2019-04-27T10:45:32.983Z,38.08
2019-04-27T10:48:03.118Z,38.08
2019-04-27T10:50:33.166Z,38.36
2019-04-27T10:53:03.209Z,38.61
2019-04-27T10:55:33.249Z,38.93
2019-04-27T10:58:03.436Z,38.62
2019-04-27T11:00:38.714Z,37.75
2019-04-27T11:03:08.826Z,37.60
2019-04-27T11:06:10.058Z,36.80
2019-04-27T11:08:40.112Z,36.72
2019-04-27T11:11:10.142Z,37.12
2019-04-27T11:13:40.234Z,37.44
2019-04-27T11:16:10.278Z,36.69
2019-04-27T11:18:40.382Z,36.89
2019-04-27T11:21:10.385Z,36.93
2019-04-27T11:23:40.424Z,36.98
2019-04-27T11:26:11.215Z,37.14
2019-04-27T11:28:42.752Z,37.75
2019-04-27T11:31:12.806Z,38.67
2019-04-27T11:33:42.876Z,38.16
2019-04-27T11:36:49.772Z,37.46
2019-04-27T11:39:21.240Z,38.19
2019-04-27T11:41:51.279Z,38.71
2019-04-27T11:44:21.307Z,39.00
2019-04-27T11:46:51.349Z,38.55
2019-04-27T11:49:21.442Z,38.60
2019-04-27T11:51:51.542Z,39.09
2019-04-27T11:54:21.649Z,39.96
2019-04-27T11:56:51.694Z,40.44
2019-04-27T11:59:22.705Z,40.00
2019-04-27T12:01:55.944Z,39.98
2019-04-27T12:04:26.374Z,40.17
2019-04-27T12:06:57.364Z,40.93
2019-04-27T12:09:27.403Z,40.40
2019-04-27T12:12:12.609Z,40.37
2019-04-27T12:14:29.316Z,40.21
2019-04-27T12:16:59.339Z,40.32
2019-04-27T12:19:29.358Z,40.32
2019-04-27T12:21:59.466Z,39.85
2019-04-27T12:24:29.558Z,39.84
2019-04-27T12:27:15.914Z,39.79
2019-04-27T12:30:26.061Z,40.04
2019-04-27T12:32:56.644Z,40.21
2019-04-27T12:35:27.708Z,40.50
2019-04-27T12:37:57.794Z,41.08
2019-04-27T12:40:27.862Z,40.28
2019-04-27T12:42:58.965Z,40.74
2019-04-27T12:45:30.137Z,39.92
2019-04-27T12:48:00.482Z,39.89
2019-04-27T12:50:30.483Z,39.61
2019-04-27T12:53:03.177Z,38.51
2019-04-27T12:56:11.227Z,37.92
2019-04-27T12:59:00.539Z,37.93
2019-04-27T13:01:30.659Z,37.69
2019-04-27T13:04:00.826Z,38.41
2019-04-27T13:06:31.811Z,38.49
2019-04-27T13:09:02.718Z,38.90
2019-04-27T13:11:34.152Z,38.79
2019-04-27T13:14:06.101Z,38.63
2019-04-27T13:16:35.995Z,38.12
2019-04-27T13:19:06.239Z,38.15
2019-04-27T13:21:36.641Z,38.58
2019-04-27T13:24:07.205Z,39.00
2019-04-27T13:26:38.118Z,39.19
2019-04-27T13:29:08.350Z,38.68
2019-04-27T13:31:38.402Z,39.20
2019-04-27T13:34:08.454Z,39.22
2019-04-27T13:36:38.496Z,39.08
2019-04-27T13:39:08.626Z,39.16
2019-04-27T13:41:40.114Z,38.52
2019-04-27T13:44:10.214Z,38.51
2019-04-27T13:46:57.693Z,37.84
2019-04-27T13:49:46.732Z,38.04
2019-04-27T13:52:26.779Z,37.62
2019-04-27T13:54:57.267Z,36.94
2019-04-27T13:57:27.313Z,36.15
2019-04-27T13:59:57.327Z,36.50
2019-04-27T14:02:32.298Z,36.32
2019-04-27T14:04:59.126Z,37.26
2019-04-27T14:07:29.174Z,38.13
2019-04-27T14:10:00.005Z,37.35
2019-04-27T14:12:30.101Z,37.03
2019-04-27T14:15:00.142Z,36.59
2019-04-27T14:17:30.156Z,36.31
2019-04-27T14:20:00.212Z,36.84
2019-04-27T14:22:31.587Z,37.48
2019-04-27T14:25:01.750Z,37.56
2019-04-27T14:27:40.667Z,37.44
2019-04-27T14:30:12.494Z,36.75
2019-04-27T14:32:42.587Z,37.08
2019-04-27T14:35:12.701Z,37.61
2019-04-27T14:37:42.719Z,37.21
2019-04-27T14:40:13.210Z,37.57
2019-04-27T14:42:43.368Z,37.80
2019-04-27T14:45:13.447Z,38.38
2019-04-27T14:47:43.505Z,38.26
2019-04-27T14:50:13.563Z,38.63
2019-04-27T14:52:43.586Z,39.72
2019-04-27T14:55:13.643Z,40.89
2019-04-27T14:57:43.649Z,41.00
2019-04-27T15:00:15.398Z,41.43
2019-04-27T15:02:45.449Z,41.94
2019-04-27T15:05:15.468Z,42.49
2019-04-27T15:07:45.490Z,42.45
2019-04-27T15:10:16.108Z,42.30
2019-04-27T15:12:46.401Z,42.40
2019-04-27T15:15:16.418Z,42.26
2019-04-27T15:17:46.467Z,42.30
2019-04-27T15:20:27.222Z,42.37
2019-04-27T15:22:56.885Z,42.20
2019-04-27T15:25:26.321Z,42.47
2019-04-27T15:28:01.270Z,42.65
2019-04-27T15:30:47.465Z,41.80
2019-04-27T15:33:46.825Z,41.42
2019-04-27T15:36:36.025Z,41.57
2019-04-27T15:39:11.788Z,41.60
2019-04-27T15:41:48.520Z,41.46
2019-04-27T15:44:18.819Z,40.80
2019-04-27T15:46:49.943Z,40.03
2019-04-27T15:49:20.017Z,40.54
2019-04-27T15:51:50.653Z,40.61
2019-04-27T15:54:22.326Z,40.22
2019-04-27T15:56:53.470Z,40.59
2019-04-27T15:59:30.875Z,40.97
2019-04-27T16:01:59.862Z,41.22
2019-04-27T16:04:29.908Z,41.29
2019-04-27T16:07:00.568Z,40.37
2019-04-27T16:09:30.660Z,39.89
2019-04-27T16:12:09.973Z,39.49
2019-04-27T16:14:32.483Z,39.81
2019-04-27T16:17:03.070Z,40.67
2019-04-27T16:19:34.213Z,41.21
2019-04-27T16:22:04.252Z,41.58
2019-04-27T16:24:34.293Z,41.84
2019-04-27T16:27:04.314Z,41.81
2019-04-27T16:29:34.377Z,42.34
2019-04-27T16:32:09.532Z,42.53
2019-04-27T16:34:37.865Z,41.30
2019-04-27T16:37:09.809Z,41.38
2019-04-27T16:39:45.378Z,41.15
2019-04-27T16:42:14.286Z,41.28
2019-04-27T16:44:44.347Z,41.15
2019-04-27T16:47:18.846Z,41.45
2019-04-27T16:49:48.447Z,41.62
2019-04-27T16:52:19.275Z,41.04
2019-04-27T16:54:56.956Z,41.24
2019-04-27T16:57:24.214Z,41.47
2019-04-27T16:59:57.523Z,41.52
2019-04-27T17:02:26.137Z,42.02
2019-04-27T17:04:56.206Z,42.09
2019-04-27T17:07:30.190Z,42.25
2019-04-27T17:09:59.472Z,42.52
2019-04-27T17:12:34.351Z,42.97
2019-04-27T17:15:18.989Z,42.98
2019-04-27T17:18:35.798Z,42.51
2019-04-27T17:21:18.374Z,42.00
2019-04-27T17:23:38.841Z,42.24
2019-04-27T17:26:20.680Z,43.00
2019-04-27T17:28:59.172Z,43.49
2019-04-27T17:31:31.734Z,43.43
2019-04-27T17:34:02.254Z,43.21
2019-04-27T17:36:32.299Z,43.37
2019-04-27T17:39:02.327Z,43.36
2019-04-27T17:41:33.970Z,43.60
2019-04-27T17:44:05.050Z,43.65
2019-04-27T17:46:35.066Z,43.71
2019-04-27T17:49:05.115Z,44.58
2019-04-27T17:51:39.552Z,44.57
2019-04-27T17:54:08.021Z,44.47
2019-04-27T17:56:48.345Z,44.61
2019-04-27T17:59:16.715Z,44.81
2019-04-27T18:01:42.050Z,45.05
2019-04-27T18:04:12.086Z,45.36
2019-04-27T18:06:42.660Z,45.12
2019-04-27T18:09:18.813Z,45.31
2019-04-27T18:11:50.382Z,45.53
2019-04-27T18:14:20.526Z,45.72
2019-04-27T18:16:50.547Z,45.90
2019-04-27T18:19:28.702Z,45.73
2019-04-27T18:22:05.709Z,46.00
2019-04-27T18:24:41.277Z,46.37
2019-04-27T18:27:19.465Z,46.37
2019-04-27T18:29:49.497Z,46.62
2019-04-27T18:32:23.594Z,46.66
2019-04-27T18:34:51.286Z,46.71
2019-04-27T18:37:24.709Z,46.92
2019-04-27T18:39:54.862Z,47.22
2019-04-27T18:42:29.714Z,46.84
2019-04-27T18:44:56.541Z,46.56
2019-04-27T18:47:26.545Z,46.36
2019-04-27T18:50:10.997Z,46.06
2019-04-27T18:52:47.265Z,46.13
2019-04-27T18:55:16.712Z,46.33
2019-04-27T18:57:45.874Z,46.63
2019-04-27T19:00:17.736Z,46.27
2019-04-27T19:02:50.041Z,46.38
2019-04-27T19:05:19.606Z,46.84
2019-04-27T19:07:49.698Z,47.00
2019-04-27T19:10:19.766Z,47.31
2019-04-27T19:12:49.800Z,47.31
2019-04-27T19:15:19.927Z,47.12
2019-04-27T19:17:50.004Z,47.38
2019-04-27T19:20:20.190Z,47.54
2019-04-27T19:22:50.315Z,47.98
2019-04-27T19:25:32.325Z,47.98
2019-04-27T19:28:33.147Z,48.39
2019-04-27T19:31:08.306Z,48.74
2019-04-27T19:33:39.602Z,49.21
2019-04-27T19:36:09.900Z,49.53
2019-04-27T19:38:40.061Z,49.35
2019-04-27T19:41:10.124Z,49.35
2019-04-27T19:43:40.334Z,49.52
2019-04-27T19:46:10.473Z,49.40
2019-04-27T19:48:40.631Z,49.60
2019-04-27T19:51:10.675Z,49.43
2019-04-27T19:53:40.775Z,49.52
2019-04-27T19:56:10.786Z,49.67
2019-04-27T19:58:45.136Z,50.16
2019-04-27T20:01:43.339Z,50.43
2019-04-27T20:04:21.185Z,50.31
2019-04-27T20:06:51.229Z,50.26
2019-04-27T20:09:44.161Z,51.09
2019-04-27T20:12:14.248Z,51.12
2019-04-27T20:14:56.638Z,51.12
2019-04-27T20:17:27.528Z,51.38
2019-04-27T20:19:57.628Z,51.40
2019-04-27T20:22:27.645Z,51.45
2019-04-27T20:24:57.749Z,51.54
2019-04-27T20:27:27.807Z,51.64
2019-04-27T20:29:57.866Z,51.54
2019-04-27T20:32:27.911Z,51.91
2019-04-27T20:34:58.081Z,51.82
2019-04-27T20:37:28.274Z,51.74
2019-04-27T20:39:58.323Z,51.65
2019-04-27T20:42:28.462Z,51.67
2019-04-27T20:44:58.772Z,51.55
2019-04-27T20:47:28.882Z,51.31
2019-04-27T20:49:59.030Z,51.07
2019-04-27T20:52:51.117Z,50.85
2019-04-27T20:55:21.515Z,50.79
2019-04-27T20:57:59.576Z,50.66
2019-04-27T21:00:24.770Z,50.66
2019-04-27T21:03:02.074Z,50.57
2019-04-27T21:05:51.086Z,50.78
2019-04-27T21:08:21.982Z,50.78
2019-04-27T21:10:52.101Z,50.86
2019-04-27T21:13:22.246Z,51.10
2019-04-27T21:15:52.308Z,51.24
2019-04-27T21:18:22.405Z,51.23
2019-04-27T21:20:52.442Z,51.39
2019-04-27T21:23:22.583Z,51.02
2019-04-27T21:25:53.594Z,50.82
2019-04-27T21:28:23.764Z,50.81
2019-04-27T21:30:53.784Z,50.73
2019-04-27T21:33:23.888Z,50.55
2019-04-27T21:35:54.016Z,50.30
2019-04-27T21:38:24.208Z,49.81
2019-04-27T21:40:54.319Z,49.64
2019-04-27T21:43:26.640Z,49.75
2019-04-27T21:45:56.775Z,49.82
2019-04-27T21:48:28.329Z,49.73
2019-04-27T21:50:58.350Z,49.74
2019-04-27T21:53:51.530Z,49.75
2019-04-27T21:56:21.567Z,49.65
2019-04-27T21:58:51.690Z,49.49
2019-04-27T22:01:38.792Z,49.53
2019-04-27T22:04:11.441Z,49.52
2019-04-27T22:06:42.195Z,49.32
2019-04-27T22:09:15.362Z,49.18
2019-04-27T22:11:45.582Z,49.12
2019-04-27T22:14:15.633Z,48.99
2019-04-27T22:16:46.659Z,49.00
2019-04-27T22:19:16.751Z,49.22
2019-04-27T22:21:46.827Z,49.18
2019-04-27T22:24:25.221Z,49.40
2019-04-27T22:26:55.279Z,49.39
2019-04-27T22:29:25.346Z,49.28
2019-04-27T22:31:55.700Z,49.12
2019-04-27T22:34:25.778Z,49.08
2019-04-27T22:36:55.829Z,49.28
2019-04-27T22:39:41.351Z,49.27
2019-04-27T22:42:28.781Z,49.28
2019-04-27T22:45:20.533Z,49.10
2019-04-27T22:47:51.697Z,49.03
2019-04-27T22:50:21.795Z,49.24
2019-04-27T22:52:51.849Z,49.46
2019-04-27T22:55:22.110Z,49.10
2019-04-27T22:57:57.196Z,48.41
2019-04-27T23:00:51.179Z,47.84
2019-04-27T23:03:27.656Z,47.77
2019-04-27T23:05:57.752Z,48.23
2019-04-27T23:08:27.817Z,48.64
2019-04-27T23:10:57.998Z,48.45
2019-04-27T23:13:28.032Z,48.08
2019-04-27T23:16:01.460Z,47.19
2019-04-27T23:18:31.671Z,46.89
2019-04-27T23:21:01.706Z,46.71
2019-04-27T23:23:31.733Z,45.89
2019-04-27T23:26:01.955Z,45.57
2019-04-27T23:28:31.988Z,45.28
2019-04-27T23:31:10.951Z,45.54
2019-04-27T23:33:43.906Z,45.76
2019-04-27T23:36:13.926Z,45.91
2019-04-27T23:38:44.030Z,46.00
2019-04-27T23:41:14.818Z,46.13
2019-04-27T23:43:44.876Z,46.05
2019-04-27T23:46:14.890Z,46.35
2019-04-27T23:48:44.950Z,47.05
2019-04-27T23:51:33.923Z,47.50
2019-04-27T23:54:03.965Z,47.82
2019-04-27T23:56:33.990Z,48.26
2019-04-27T23:59:04.112Z,48.97
